Time;durP1;ratioP1;P1;durP2;ratioP2;P2;SDS_P1;SDS_P2;PMS_P1;PMS_P2;Temp;Humidity;BMP_temperature;BMP_pressure;BME280_temperature;BME280_humidity;BME280_pressure;Samples;Min_cycle;Max_cycle;Signal;HPM_P1;HPM_P2
2022/07/03 00:01:52;;;;;;;1.00;1.00;;;;;;;19.20;73.62;95729.47;4346589;32;20193;-57
2022/07/03 00:04:19;;;;;;;1.30;1.30;;;;;;;19.20;73.57;95729.47;4343246;32;20237;-55
2022/07/03 00:06:54;;;;;;;5.70;1.00;;;;;;;19.18;73.67;95734.38;4355065;32;20305;-56
2022/07/03 00:09:21;;;;;;;0.90;0.90;;;;;;;19.12;73.87;95733.03;4361807;32;20200;-58
2022/07/03 00:11:46;;;;;;;1.77;1.67;;;;;;;19.14;73.87;95733.50;4346010;32;20264;-57
2022/07/03 00:14:13;;;;;;;0.97;0.97;;;;;;;19.17;73.52;95735.50;4335570;32;20223;-56
2022/07/03 00:16:40;;;;;;;0.90;0.90;;;;;;;19.13;73.60;95729.22;4353779;32;20197;-58
2022/07/03 00:19:07;;;;;;;0.63;0.63;;;;;;;19.13;74.40;95731.91;4349050;32;20197;-58
2022/07/03 00:21:52;;;;;;;2.57;1.33;;;;;;;18.93;74.61;95732.81;4343636;32;20197;-57
2022/07/03 00:24:26;;;;;;;0.80;0.80;;;;;;;19.09;74.30;95739.13;4357964;32;20272;-57
2022/07/03 00:26:52;;;;;;;0.90;0.90;;;;;;;19.22;74.04;95732.59;4344036;32;20264;-56
2022/07/03 00:29:26;;;;;;;1.00;1.00;;;;;;;19.27;73.93;95728.13;4338024;32;20234;-53
2022/07/03 00:31:53;;;;;;;1.47;1.37;;;;;;;19.20;74.07;95725.97;4345519;32;20201;-56
2022/07/03 00:34:25;;;;;;;0.80;0.80;;;;;;;18.89;74.92;95729.25;4340315;32;20201;-58
2022/07/03 00:36:52;;;;;;;1.87;1.10;;;;;;;19.07;74.42;95727.91;4346561;32;20208;-58
2022/07/03 00:39:19;;;;;;;0.70;0.70;;;;;;;19.08;74.78;95720.62;4276039;33;20209;-56
2022/07/03 00:41:46;;;;;;;1.73;1.63;;;;;;;18.91;75.19;95724.34;4314385;32;20194;-58
2022/07/03 00:44:14;;;;;;;0.80;0.80;;;;;;;18.96;75.20;95721.41;4330800;32;20204;-57
2022/07/03 00:46:50;;;;;;;11.73;1.20;;;;;;;19.13;74.95;95721.16;4342854;32;20196;-57
2022/07/03 00:49:19;;;;;;;1.60;1.43;;;;;;;18.92;74.88;95719.72;4297150;32;20256;-57
2022/07/03 00:51:53;;;;;;;0.87;0.87;;;;;;;19.02;75.05;95716.59;4340490;32;20205;-57
2022/07/03 00:54:34;;;;;;;0.67;0.67;;;;;;;19.00;75.31;95726.88;4345138;32;20193;-57
2022/07/03 00:57:03;;;;;;;1.33;0.93;;;;;;;18.89;75.14;95723.88;4323275;32;20252;-57
2022/07/03 00:59:36;;;;;;;1.13;1.13;;;;;;;19.05;75.31;95718.59;4312836;32;20192;-58
2022/07/03 01:02:06;;;;;;;1.13;1.13;;;;;;;19.12;75.15;95722.28;4346628;32;20219;-57
2022/07/03 01:05:11;;;;;;;1.00;1.00;;;;;;;19.07;75.86;95721.75;4334956;32;20193;-58
2022/07/03 01:08:11;;;;;;;0.97;0.97;;;;;;;18.90;76.32;95720.06;4309783;32;20260;-57
2022/07/03 01:11:00;;;;;;;0.80;0.80;;;;;;;19.08;76.20;95710.66;4293624;32;20193;-57
2022/07/03 01:14:06;;;;;;;0.67;0.67;;;;;;;19.17;75.97;95719.38;4353483;32;20287;-58
2022/07/03 01:17:12;;;;;;;2.20;1.70;;;;;;;18.93;76.39;95714.00;4312091;32;20202;-58
2022/07/03 01:19:49;;;;;;;1.47;1.43;;;;;;;18.99;76.93;95707.28;4352972;32;20207;-57
2022/07/03 01:22:35;;;;;;;0.97;0.97;;;;;;;19.08;76.60;95704.50;4337803;32;20252;-56
2022/07/03 01:25:26;;;;;;;1.13;1.13;;;;;;;19.03;76.68;95710.87;4342365;32;20193;-58
2022/07/03 01:28:01;;;;;;;0.60;0.60;;;;;;;19.13;76.17;95707.72;4329798;32;20197;-57
2022/07/03 01:30:29;;;;;;;0.73;0.73;;;;;;;19.02;75.67;95711.19;4342062;32;20208;-57
2022/07/03 01:33:35;;;;;;;0.73;0.73;;;;;;;18.99;76.26;95703.81;4358252;32;20196;-57
2022/07/03 01:36:10;;;;;;;0.83;0.77;;;;;;;18.95;77.19;95701.00;4302998;33;20209;-56
2022/07/03 01:38:39;;;;;;;0.90;0.90;;;;;;;18.84;76.83;95698.00;4323227;32;20231;-58
2022/07/03 01:41:09;;;;;;;0.67;0.67;;;;;;;18.98;76.87;95703.03;4322540;33;20253;-56
2022/07/03 01:43:41;;;;;;;0.80;0.80;;;;;;;18.94;77.05;95704.81;4314568;33;20247;-56
2022/07/03 01:46:07;;;;;;;0.63;0.63;;;;;;;18.99;77.14;95709.97;4312944;33;20198;-55
2022/07/03 01:48:35;;;;;;;0.80;0.80;;;;;;;19.03;76.82;95704.72;4326115;33;20241;-56
2022/07/03 01:51:10;;;;;;;0.70;0.70;;;;;;;18.94;77.66;95704.81;4298212;33;20201;-56
2022/07/03 01:53:36;;;;;;;0.67;0.67;;;;;;;18.85;77.27;95706.84;4315604;32;20217;-53
2022/07/03 01:56:23;;;;;;;1.47;1.37;;;;;;;19.02;77.77;95706.62;4357162;32;20186;-56
2022/07/03 01:58:50;;;;;;;0.60;0.60;;;;;;;19.04;77.11;95706.28;4347708;32;20258;-57
2022/07/03 02:01:25;;;;;;;1.03;1.03;;;;;;;19.12;76.88;95695.37;4345302;32;20192;-57
2022/07/03 02:04:07;;;;;;;0.90;0.90;;;;;;;19.04;76.94;95701.69;4346770;32;20226;-55
2022/07/03 02:07:08;;;;;;;0.77;0.77;;;;;;;19.05;77.50;95702.47;4343641;32;20189;-57
2022/07/03 02:10:14;;;;;;;0.80;0.80;;;;;;;18.97;78.00;95703.34;4309838;32;20264;-57
2022/07/03 02:12:49;;;;;;;3.40;0.67;;;;;;;18.81;78.48;95714.00;4335573;32;20251;-57
2022/07/03 02:15:28;;;;;;;0.77;0.77;;;;;;;18.78;78.93;95718.16;4368480;32;20187;-57
2022/07/03 02:17:56;;;;;;;1.07;0.80;;;;;;;18.90;78.61;95709.31;4331424;32;20310;-53
2022/07/03 02:20:31;;;;;;;0.47;0.47;;;;;;;18.86;78.49;95717.28;4324473;32;20260;-58
2022/07/03 02:23:10;;;;;;;2.07;1.37;;;;;;;18.75;79.01;95712.66;4330465;32;20202;-57
2022/07/03 02:25:40;;;;;;;0.60;0.60;;;;;;;18.84;79.00;95707.97;4331887;32;20184;-58
2022/07/03 02:28:30;;;;;;;6.63;1.20;;;;;;;18.83;78.99;95719.84;4316450;32;20236;-56
2022/07/03 02:31:06;;;;;;;1.33;1.23;;;;;;;18.81;78.33;95717.47;4335542;32;20201;-56
2022/07/03 02:33:39;;;;;;;0.70;0.70;;;;;;;18.80;78.46;95707.84;4289955;32;20189;-57
2022/07/03 02:36:19;;;;;;;0.50;0.50;;;;;;;18.77;78.72;95721.97;4344755;32;20196;-58
2022/07/03 02:38:53;;;;;;;1.70;0.50;;;;;;;18.66;78.91;95715.47;4355337;32;20228;-57
2022/07/03 02:41:37;;;;;;;1.03;0.67;;;;;;;18.82;79.03;95707.50;4346163;32;20207;-57
2022/07/03 02:44:31;;;;;;;0.80;0.80;;;;;;;18.68;79.51;95707.84;4349624;32;20246;-57
2022/07/03 02:47:07;;;;;;;0.70;0.70;;;;;;;18.78;79.24;95717.37;4342804;32;20294;-58
2022/07/03 02:50:09;;;;;;;0.73;0.73;;;;;;;18.78;79.06;95712.78;4327087;32;20189;-58
2022/07/03 02:52:41;;;;;;;0.40;0.40;;;;;;;18.85;79.46;95720.28;4348660;32;20267;-56
2022/07/03 02:55:43;;;;;;;0.40;0.40;;;;;;;18.78;79.33;95722.75;4360426;32;20246;-58
2022/07/03 02:58:27;;;;;;;0.83;0.83;;;;;;;18.81;79.88;95717.47;4358059;32;20193;-54
2022/07/03 03:01:39;;;;;;;1.03;1.00;;;;;;;18.60;80.61;95724.84;4359250;32;20211;-57
2022/07/03 03:04:34;;;;;;;0.47;0.47;;;;;;;18.67;80.26;95729.69;4324025;32;20205;-56
2022/07/03 03:07:11;;;;;;;3.20;0.60;;;;;;;18.51;80.29;95724.91;4319401;32;20189;-58
2022/07/03 03:09:50;;;;;;;0.20;0.20;;;;;;;18.58;81.09;95739.72;4331047;32;20197;-57
2022/07/03 03:12:28;;;;;;;0.40;0.40;;;;;;;18.59;81.00;95736.72;4345453;32;20212;-54
2022/07/03 03:15:15;;;;;;;0.60;0.60;;;;;;;18.55;81.00;95733.88;4349778;32;20265;-57
2022/07/03 03:17:57;;;;;;;0.80;0.80;;;;;;;18.55;81.14;95741.16;4355174;32;20231;-56
2022/07/03 03:20:31;;;;;;;0.50;0.50;;;;;;;18.60;81.28;95749.03;4339334;32;20211;-55
2022/07/03 03:23:50;;;;;;;0.50;0.50;;;;;;;18.64;80.99;95746.47;4346491;32;20205;-55
2022/07/03 03:26:31;;;;;;;0.93;0.93;;;;;;;18.43;81.53;95744.62;4336543;32;20193;-57
2022/07/03 03:29:02;;;;;;;0.40;0.40;;;;;;;18.51;81.78;95741.03;4353247;32;20284;-58
2022/07/03 03:31:27;;;;;;;0.33;0.33;;;;;;;18.23;82.32;95748.16;4354778;32;20229;-57
2022/07/03 03:33:58;;;;;;;1.43;1.33;;;;;;;18.50;82.23;95752.12;4311482;32;20276;-57
2022/07/03 03:36:28;;;;;;;0.60;0.60;;;;;;;18.52;81.98;95747.97;4362655;32;20205;-55
2022/07/03 03:38:55;;;;;;;0.67;0.67;;;;;;;18.58;81.91;95750.47;4346690;32;20309;-57
2022/07/03 03:41:21;;;;;;;0.97;0.83;;;;;;;18.34;82.52;95749.28;4308344;32;20315;-58
2022/07/03 03:43:47;;;;;;;0.60;0.60;;;;;;;18.46;82.04;95754.72;4349777;32;20259;-57
2022/07/03 03:46:17;;;;;;;0.40;0.40;;;;;;;18.52;82.17;95755.25;4368493;32;20207;-53
2022/07/03 03:48:45;;;;;;;0.83;0.83;;;;;;;18.55;82.33;95752.69;4366109;32;20227;-57
2022/07/03 03:51:12;;;;;;;0.40;0.40;;;;;;;18.62;82.08;95752.19;4344453;32;20189;-58
2022/07/03 03:53:46;;;;;;;0.67;0.67;;;;;;;18.58;81.88;95753.16;4361174;32;20263;-57
2022/07/03 03:56:14;;;;;;;1.90;0.93;;;;;;;18.59;82.38;95757.41;4331885;32;20215;-58
2022/07/03 03:58:41;;;;;;;0.40;0.40;;;;;;;18.58;82.58;95751.25;4334710;32;20197;-58
2022/07/03 04:01:09;;;;;;;0.43;0.43;;;;;;;18.58;82.47;95750.47;4333279;32;20189;-58
2022/07/03 04:03:37;;;;;;;1.00;0.90;;;;;;;18.55;82.69;95758.06;4333020;32;20302;-65
2022/07/03 04:06:07;;;;;;;0.67;0.67;;;;;;;18.63;82.72;95763.72;4355131;32;20226;-57
2022/07/03 04:08:33;;;;;;;0.83;0.83;;;;;;;18.62;82.78;95762.16;4330556;32;20235;-58
2022/07/03 04:10:59;;;;;;;1.10;0.83;;;;;;;18.59;82.85;95760.91;4332910;32;20267;-57
2022/07/03 04:13:26;;;;;;;0.97;0.97;;;;;;;18.54;82.50;95767.25;4346788;32;20193;-57
2022/07/03 04:15:54;;;;;;;0.60;0.60;;;;;;;18.48;83.43;95768.59;4347443;32;20197;-57
2022/07/03 04:18:19;;;;;;;0.57;0.57;;;;;;;18.51;83.32;95765.22;4358080;32;20196;-57
2022/07/03 04:20:47;;;;;;;2.37;0.80;;;;;;;18.60;82.85;95770.53;4351098;32;20185;-58
2022/07/03 04:23:14;;;;;;;0.73;0.73;;;;;;;18.44;83.82;95773.06;4371831;32;20242;-57
2022/07/03 04:25:41;;;;;;;0.70;0.70;;;;;;;18.62;83.18;95767.53;4353382;32;20193;-58
2022/07/03 04:28:08;;;;;;;3.33;0.83;;;;;;;18.47;83.57;95774.31;4360623;32;20236;-57
2022/07/03 04:30:40;;;;;;;0.77;0.77;;;;;;;18.47;84.01;95777.00;4363684;32;20207;-58
2022/07/03 04:33:06;;;;;;;0.53;0.53;;;;;;;18.58;83.76;95777.34;4313220;32;20217;-59
2022/07/03 04:35:31;;;;;;;1.10;0.33;;;;;;;18.43;84.02;95776.06;4362896;32;20193;-58
2022/07/03 04:37:56;;;;;;;0.80;0.80;;;;;;;18.12;84.17;95769.25;4365869;32;20272;-58
2022/07/03 04:40:23;;;;;;;0.67;0.67;;;;;;;18.12;84.69;95779.19;4368696;32;20180;-58
2022/07/03 04:42:50;;;;;;;0.40;0.40;;;;;;;18.27;85.47;95773.25;4323372;32;20268;-57
2022/07/03 04:45:15;;;;;;;0.63;0.63;;;;;;;18.30;85.23;95775.22;4338009;32;20189;-58
2022/07/03 04:47:42;;;;;;;0.60;0.60;;;;;;;18.49;84.34;95786.28;4357955;32;20212;-57
2022/07/03 04:50:08;;;;;;;0.47;0.47;;;;;;;18.63;83.78;95785.22;4349266;32;20192;-57
2022/07/03 04:52:35;;;;;;;0.93;0.90;;;;;;;18.68;83.32;95779.66;4332099;32;20193;-59
2022/07/03 04:55:02;;;;;;;1.07;0.60;;;;;;;18.69;83.80;95783.91;4371083;32;20189;-58
2022/07/03 04:57:30;;;;;;;0.37;0.37;;;;;;;18.69;83.77;95781.22;4329251;32;20197;-57
2022/07/03 04:59:55;;;;;;;0.60;0.60;;;;;;;18.74;83.74;95787.13;4332344;32;20249;-57
2022/07/03 05:02:22;;;;;;;0.47;0.47;;;;;;;18.73;83.85;95790.16;4365128;32;20193;-58
2022/07/03 05:04:49;;;;;;;0.50;0.50;;;;;;;18.70;83.86;95788.94;4344966;32;20207;-57
2022/07/03 05:07:19;;;;;;;1.00;1.00;;;;;;;18.78;83.96;95792.63;4337227;32;20327;-56
2022/07/03 05:09:45;;;;;;;0.40;0.40;;;;;;;18.77;83.99;95793.75;4337715;32;20299;-57
2022/07/03 05:12:12;;;;;;;0.70;0.70;;;;;;;18.82;83.87;95794.34;4359782;32;20208;-57
2022/07/03 05:14:40;;;;;;;0.60;0.60;;;;;;;18.92;83.86;95797.69;4360631;32;20222;-57
2022/07/03 05:17:09;;;;;;;0.37;0.37;;;;;;;18.85;84.23;95792.88;4364194;32;20293;-61
2022/07/03 05:19:39;;;;;;;0.63;0.63;;;;;;;18.94;84.28;95800.84;4357122;32;20188;-62
2022/07/03 05:22:05;;;;;;;0.60;0.60;;;;;;;18.96;84.24;95798.59;4357059;32;20228;-58
2022/07/03 05:24:32;;;;;;;0.60;0.60;;;;;;;19.02;83.95;95792.66;4366371;32;20185;-57
2022/07/03 05:26:58;;;;;;;0.73;0.73;;;;;;;19.04;84.16;95795.81;4356726;32;20268;-58
2022/07/03 05:29:25;;;;;;;0.23;0.23;;;;;;;19.10;84.04;95799.06;4308112;32;20276;-58
2022/07/03 05:31:53;;;;;;;0.50;0.50;;;;;;;19.15;83.88;95801.53;4345414;32;20189;-57
2022/07/03 05:34:18;;;;;;;0.50;0.50;;;;;;;19.18;83.98;95796.25;4371762;32;20207;-57
2022/07/03 05:36:43;;;;;;;0.57;0.57;;;;;;;19.13;84.43;95801.06;4363447;32;20196;-58
2022/07/03 05:41:54;;;;;;;0.77;0.40;;;;;;;19.21;83.89;95800.97;4340818;32;20396;-57
2022/07/03 05:44:21;;;;;;;0.80;0.80;;;;;;;19.26;84.59;95807.25;4316797;32;20201;-57
2022/07/03 05:46:48;;;;;;;0.40;0.37;;;;;;;19.33;84.11;95796.72;4338553;32;20219;-57
2022/07/03 05:49:16;;;;;;;0.70;0.70;;;;;;;19.34;84.11;95798.25;4349587;32;20196;-58
2022/07/03 05:51:42;;;;;;;0.80;0.50;;;;;;;19.42;84.37;95795.47;4346290;32;20211;-55
2022/07/03 05:54:09;;;;;;;0.90;0.77;;;;;;;19.42;84.81;95794.69;4359132;32;20256;-58
2022/07/03 05:56:35;;;;;;;0.53;0.53;;;;;;;19.55;83.67;95801.66;4354251;32;20208;-56
2022/07/03 05:59:01;;;;;;;0.73;0.73;;;;;;;19.62;83.61;95803.78;4331501;32;20193;-57
2022/07/03 06:01:28;;;;;;;0.47;0.47;;;;;;;19.68;83.20;95802.44;4357864;32;20212;-57
2022/07/03 06:04:00;;;;;;;0.83;0.40;;;;;;;19.72;82.99;95804.09;4375157;32;20197;-57
2022/07/03 06:06:25;;;;;;;0.50;0.50;;;;;;;19.80;82.69;95805.88;4350361;32;20202;-55
2022/07/03 06:08:52;;;;;;;4.43;1.03;;;;;;;19.89;82.21;95808.44;4328960;32;20215;-57
2022/07/03 06:11:19;;;;;;;0.57;0.57;;;;;;;19.98;81.97;95800.22;4357360;32;20225;-57
2022/07/03 06:13:45;;;;;;;0.30;0.30;;;;;;;20.06;81.81;95802.00;4341717;32;20197;-57
2022/07/03 06:16:11;;;;;;;0.33;0.33;;;;;;;20.15;81.65;95799.97;4338055;32;20197;-58
2022/07/03 06:18:36;;;;;;;0.83;0.50;;;;;;;20.21;80.66;95809.34;4349947;32;20302;-57
2022/07/03 06:21:01;;;;;;;0.20;0.20;;;;;;;20.30;80.65;95801.91;4361559;32;20246;-57
2022/07/03 06:23:28;;;;;;;0.40;0.40;;;;;;;20.39;80.08;95810.66;4337512;32;20193;-57
2022/07/03 06:25:58;;;;;;;0.53;0.53;;;;;;;20.49;79.91;95801.28;4364862;32;20260;-57
2022/07/03 06:28:25;;;;;;;0.30;0.30;;;;;;;20.58;79.30;95802.69;4357825;32;20193;-56
2022/07/03 06:30:52;;;;;;;0.57;0.57;;;;;;;20.71;78.81;95805.34;4342938;32;20193;-57
2022/07/03 06:33:17;;;;;;;0.40;0.40;;;;;;;20.79;78.26;95805.16;4340637;32;20237;-55
2022/07/03 06:35:47;;;;;;;0.43;0.43;;;;;;;20.86;77.38;95802.66;4350122;32;20275;-58
2022/07/03 06:38:13;;;;;;;0.60;0.60;;;;;;;20.98;76.99;95801.03;4367973;32;20203;-58
2022/07/03 06:40:39;;;;;;;0.33;0.33;;;;;;;21.08;76.11;95793.16;4338584;32;20216;-57
2022/07/03 06:43:04;;;;;;;0.40;0.40;;;;;;;21.20;76.11;95795.78;4337100;32;20204;-59
2022/07/03 06:45:33;;;;;;;0.53;0.53;;;;;;;21.33;75.87;95801.13;4326523;32;20216;-57
2022/07/03 06:48:03;;;;;;;0.40;0.40;;;;;;;21.37;75.37;95807.38;4366773;32;20184;-57
2022/07/03 06:50:31;;;;;;;0.63;0.63;;;;;;;21.47;74.44;95799.53;4324794;32;20201;-57
2022/07/03 06:52:58;;;;;;;0.50;0.50;;;;;;;21.58;73.77;95803.25;4338175;32;20256;-56
2022/07/03 06:55:23;;;;;;;0.33;0.33;;;;;;;21.58;74.51;95799.78;4371115;32;20192;-58
2022/07/03 06:57:48;;;;;;;2.97;0.63;;;;;;;21.74;72.99;95797.03;4340857;32;20204;-58
2022/07/03 07:00:14;;;;;;;0.40;0.40;;;;;;;21.86;72.46;95803.09;4344463;32;20203;-58
2022/07/03 07:02:41;;;;;;;0.53;0.53;;;;;;;21.97;71.99;95802.53;4337665;32;20202;-56
2022/07/03 07:05:08;;;;;;;0.27;0.27;;;;;;;21.98;71.36;95804.09;4371480;32;20199;-57
2022/07/03 07:07:34;;;;;;;0.60;0.60;;;;;;;22.13;69.92;95800.59;4347098;32;20239;-56
2022/07/03 07:10:02;;;;;;;0.37;0.37;;;;;;;22.48;67.96;95798.56;4351406;32;20207;-58
2022/07/03 07:12:27;;;;;;;0.20;0.20;;;;;;;22.58;67.25;95805.34;4310215;32;20268;-57
2022/07/03 07:14:53;;;;;;;0.43;0.43;;;;;;;22.75;66.36;95806.78;4365052;32;22097;-56
2022/07/03 07:17:19;;;;;;;0.60;0.60;;;;;;;22.85;66.41;95811.66;4354445;32;20215;-56
2022/07/03 07:19:45;;;;;;;0.30;0.30;;;;;;;23.01;66.05;95815.03;4353174;32;20236;-58
2022/07/03 07:22:12;;;;;;;0.20;0.20;;;;;;;23.17;65.08;95812.97;4366811;32;20215;-58
2022/07/03 07:24:38;;;;;;;0.93;0.60;;;;;;;23.36;65.40;95808.63;4333257;32;20264;-59
2022/07/03 07:27:07;;;;;;;0.37;0.37;;;;;;;23.42;64.54;95812.59;4358522;32;20248;-57
2022/07/03 07:29:33;;;;;;;0.20;0.20;;;;;;;23.43;65.05;95803.31;4356774;32;20200;-58
2022/07/03 07:31:58;;;;;;;0.10;0.10;;;;;;;23.35;65.76;95807.06;4330102;32;20190;-58
2022/07/03 07:34:23;;;;;;;0.20;0.20;;;;;;;23.25;65.46;95808.47;4338940;32;20326;-56
2022/07/03 07:36:50;;;;;;;0.50;0.50;;;;;;;23.21;66.12;95810.34;4346781;32;20208;-56
2022/07/03 07:39:16;;;;;;;0.10;0.10;;;;;;;23.24;64.66;95809.59;4310677;32;20198;-52
2022/07/03 07:41:41;;;;;;;3.00;2.80;;;;;;;23.27;64.35;95806.97;4301082;32;20204;-57
2022/07/03 07:44:08;;;;;;;0.60;0.60;;;;;;;23.22;64.36;95809.19;4344773;32;20298;-57
2022/07/03 07:46:34;;;;;;;0.40;0.40;;;;;;;23.24;65.35;95807.69;4326756;32;20240;-56
2022/07/03 07:48:59;;;;;;;0.30;0.30;;;;;;;23.30;63.38;95810.84;4352623;32;20227;-57
2022/07/03 07:51:26;;;;;;;0.33;0.33;;;;;;;23.38;63.75;95807.13;4324817;32;20197;-57
2022/07/03 07:53:56;;;;;;;0.60;0.60;;;;;;;23.37;63.46;95812.91;4340575;32;20205;-57
2022/07/03 07:56:27;;;;;;;0.30;0.30;;;;;;;23.35;63.29;95813.25;4346944;32;20197;-58
2022/07/03 07:58:55;;;;;;;0.83;0.83;;;;;;;23.33;63.40;95814.75;4292217;32;20189;-57
2022/07/03 08:06:52;;;;;;;0.00;0.00;;;;;;;23.44;62.61;95813.81;4303981;32;20300;-57
2022/07/03 08:09:19;;;;;;;0.67;0.67;;;;;;;23.45;62.95;95812.66;4340394;32;20248;-55
2022/07/03 08:11:44;;;;;;;0.10;0.10;;;;;;;23.55;61.54;95816.69;4354357;32;20244;-57
2022/07/03 08:14:14;;;;;;;0.23;0.23;;;;;;;23.67;59.78;95805.66;4333514;32;20205;-56
2022/07/03 08:16:42;;;;;;;0.93;0.93;;;;;;;23.65;61.50;95810.66;4357826;32;20196;-57
2022/07/03 08:19:08;;;;;;;0.20;0.20;;;;;;;23.68;61.20;95804.50;4314594;32;20198;-57
2022/07/03 08:21:36;;;;;;;0.20;0.20;;;;;;;23.66;60.85;95806.03;4328391;32;20201;-56
2022/07/03 08:24:04;;;;;;;0.33;0.33;;;;;;;23.66;61.17;95808.72;4325195;32;20216;-56
2022/07/03 08:26:30;;;;;;;0.30;0.30;;;;;;;23.79;59.19;95802.72;4320410;32;20229;-57
2022/07/03 08:28:57;;;;;;;0.20;0.20;;;;;;;23.81;59.67;95805.06;4336568;32;20205;-57
2022/07/03 08:31:23;;;;;;;0.30;0.30;;;;;;;23.77;57.54;95807.72;4328223;32;20197;-55
2022/07/03 08:33:49;;;;;;;0.23;0.23;;;;;;;23.84;58.92;95807.84;4354432;32;20271;-54
2022/07/03 08:36:18;;;;;;;0.20;0.20;;;;;;;23.88;59.05;95808.66;4317212;32;20201;-58
2022/07/03 08:38:45;;;;;;;1.30;1.30;;;;;;;23.85;58.85;95801.25;4330666;32;20256;-55
2022/07/03 08:41:12;;;;;;;0.30;0.30;;;;;;;23.87;58.88;95798.97;4318429;32;20190;-56
2022/07/03 08:43:41;;;;;;;0.20;0.20;;;;;;;23.92;59.00;95801.34;4319860;32;20296;-57
2022/07/03 08:46:14;;;;;;;0.40;0.40;;;;;;;23.97;58.16;95806.44;4327925;32;20193;-55
2022/07/03 08:48:44;;;;;;;0.30;0.30;;;;;;;23.95;58.40;95797.91;4326866;32;20197;-55
2022/07/03 08:51:22;;;;;;;0.37;0.37;;;;;;;23.98;56.59;95799.09;4348481;32;20241;-51
2022/07/03 08:53:54;;;;;;;1.53;1.43;;;;;;;23.88;57.52;95792.41;4348995;32;20236;-50
2022/07/03 08:56:29;;;;;;;4.30;1.37;;;;;;;23.49;63.28;95801.84;4326198;32;20212;-49
2022/07/03 08:58:58;;;;;;;0.63;0.63;;;;;;;23.27;63.69;95792.66;4349731;32;20280;-49
2022/07/03 09:01:26;;;;;;;0.83;0.83;;;;;;;23.14;62.92;95797.44;4318386;32;20200;-49
2022/07/03 09:03:52;;;;;;;0.40;0.40;;;;;;;23.04;63.25;95791.88;4342745;32;20190;-49
2022/07/03 09:06:19;;;;;;;0.53;0.53;;;;;;;23.10;59.44;95791.19;4329685;32;20208;-51
2022/07/03 09:08:56;;;;;;;0.33;0.33;;;;;;;23.06;62.36;95795.00;4332099;32;20216;-48
2022/07/03 09:11:25;;;;;;;1.07;1.07;;;;;;;23.17;60.58;95787.81;4309619;32;20233;-49
2022/07/03 09:13:51;;;;;;;1.33;0.47;;;;;;;23.14;61.82;95783.91;4350816;32;20307;-50
2022/07/03 09:16:17;;;;;;;0.40;0.40;;;;;;;23.16;61.06;95784.34;4329568;32;20201;-49
2022/07/03 09:18:45;;;;;;;0.63;0.63;;;;;;;23.20;62.06;95777.06;4344049;32;20216;-47
2022/07/03 09:21:12;;;;;;;0.20;0.20;;;;;;;23.24;61.42;95785.25;4317802;32;20239;-49
2022/07/03 09:23:41;;;;;;;0.40;0.40;;;;;;;23.19;60.75;95785.53;4275996;33;20230;-48
2022/07/03 09:26:13;;;;;;;0.57;0.40;;;;;;;23.21;60.07;95781.31;4348709;32;20291;-48
2022/07/03 09:28:55;;;;;;;0.43;0.43;;;;;;;23.17;61.96;95782.41;4328697;32;20193;-50
2022/07/03 09:31:26;;;;;;;0.10;0.10;;;;;;;23.36;58.76;95787.75;4334144;32;20196;-50
2022/07/03 09:33:55;;;;;;;0.20;0.20;;;;;;;23.30;59.49;95786.47;4340148;32;20255;-47
2022/07/03 09:36:53;;;;;;;0.30;0.30;;;;;;;23.29;61.40;95782.97;4332750;32;20189;-51
2022/07/03 09:39:30;;;;;;;0.80;0.80;;;;;;;23.22;61.48;95777.47;4359711;32;20194;-50
2022/07/03 09:42:11;;;;;;;0.50;0.50;;;;;;;23.30;55.99;95786.47;4319749;32;20291;-46
2022/07/03 09:44:42;;;;;;;0.30;0.30;;;;;;;23.10;61.55;95774.16;4318988;32;20212;-51
2022/07/03 09:47:21;;;;;;;3.10;0.97;;;;;;;23.21;59.92;95784.03;4349904;32;20208;-46
2022/07/03 09:50:02;;;;;;;1.23;1.23;;;;;;;23.20;58.68;95787.88;4362626;32;20215;-50
2022/07/03 09:52:56;;;;;;;0.30;0.30;;;;;;;23.18;57.69;95779.34;4342069;32;20256;-51
2022/07/03 09:55:22;;;;;;;0.20;0.20;;;;;;;23.34;58.55;95779.19;4329639;32;20192;-53
2022/07/03 09:58:01;;;;;;;0.43;0.43;;;;;;;23.21;59.05;95773.22;4367976;32;20239;-47
2022/07/03 10:00:33;;;;;;;0.83;0.83;;;;;;;23.39;58.91;95780.81;4309056;32;20196;-53
2022/07/03 10:03:09;;;;;;;0.90;0.90;;;;;;;23.62;55.75;95779.66;4314960;32;20201;-52
2022/07/03 10:05:43;;;;;;;0.20;0.20;;;;;;;23.50;58.49;95777.09;4347192;32;20205;-51
2022/07/03 10:08:15;;;;;;;0.23;0.23;;;;;;;23.69;57.49;95778.97;4331373;32;20209;-51
2022/07/03 10:10:45;;;;;;;0.30;0.30;;;;;;;23.45;58.32;95773.94;4354173;32;20209;-51
2022/07/03 10:13:13;;;;;;;0.60;0.60;;;;;;;23.43;58.37;95760.00;4350691;32;20189;-51
2022/07/03 10:15:41;;;;;;;0.27;0.27;;;;;;;23.61;54.50;95761.06;4328198;32;20197;-49
2022/07/03 10:18:13;;;;;;;1.23;1.13;;;;;;;23.82;55.04;95766.75;4353787;32;20256;-48
2022/07/03 10:20:59;;;;;;;0.60;0.60;;;;;;;23.82;57.07;95764.06;4343440;32;20271;-46
2022/07/03 10:23:29;;;;;;;0.20;0.20;;;;;;;23.69;58.08;95765.44;4344551;32;20205;-51
2022/07/03 10:25:56;;;;;;;0.30;0.30;;;;;;;23.73;54.35;95760.03;4356767;32;20264;-51
2022/07/03 10:28:22;;;;;;;0.20;0.20;;;;;;;23.85;56.80;95760.59;4338593;32;20196;-48
2022/07/03 10:30:49;;;;;;;0.20;0.20;;;;;;;23.88;56.09;95759.88;4342772;32;20262;-51
2022/07/03 10:33:18;;;;;;;0.20;0.20;;;;;;;24.17;51.21;95754.78;4350211;32;20197;-48
2022/07/03 10:35:49;;;;;;;0.33;0.30;;;;;;;24.02;55.31;95753.06;4329600;32;20245;-50
2022/07/03 10:38:40;;;;;;;0.20;0.20;;;;;;;23.85;55.40;95744.34;4363083;32;20254;-49
2022/07/03 10:47:42;;;;;;;0.20;0.20;;;;;;;24.17;49.30;95752.06;4315828;32;20207;-52
2022/07/03 10:50:23;;;;;;;0.70;0.70;;;;;;;24.22;50.79;95746.31;4320341;32;20184;-48
2022/07/03 10:52:51;;;;;;;0.10;0.10;;;;;;;24.23;51.71;95751.38;4330594;32;20239;-48
2022/07/03 10:55:21;;;;;;;0.47;0.47;;;;;;;24.20;53.78;95754.84;4302914;32;20205;-51
2022/07/03 10:58:08;;;;;;;0.40;0.40;;;;;;;24.08;53.03;95748.87;4325354;32;20248;-50
2022/07/03 11:00:58;;;;;;;0.20;0.20;;;;;;;23.96;52.54;95742.53;4342643;32;20196;-51
2022/07/03 11:03:54;;;;;;;1.43;0.20;;;;;;;23.90;54.91;95740.53;4354004;32;23180;-49
2022/07/03 11:06:47;;;;;;;0.47;0.47;;;;;;;24.03;50.64;95744.56;4351146;32;20185;-52
2022/07/03 11:09:14;;;;;;;1.60;1.03;;;;;;;24.06;53.45;95743.03;4321597;32;20201;-49
2022/07/03 11:12:01;;;;;;;0.37;0.37;;;;;;;24.17;50.25;95742.00;4358952;32;20188;-49
2022/07/03 11:14:32;;;;;;;0.40;0.40;;;;;;;24.24;48.61;95735.91;4355578;32;20185;-53
2022/07/03 11:17:21;;;;;;;0.20;0.20;;;;;;;24.40;45.73;95722.91;4344534;32;20362;-51
2022/07/03 11:23:31;;;;;;;0.10;0.10;;;;;;;24.21;47.35;95717.66;4331083;32;20254;-47
2022/07/03 11:26:01;;;;;;;2.17;0.27;;;;;;;24.44;49.21;95715.59;4279391;33;20262;-52
2022/07/03 11:28:54;;;;;;;0.10;0.10;;;;;;;24.15;51.49;95714.47;4315215;32;20221;-53
2022/07/03 11:31:23;;;;;;;0.47;0.47;;;;;;;24.43;44.25;95715.97;4301991;33;20253;-50
2022/07/03 11:33:56;;;;;;;12.40;1.80;;;;;;;24.55;43.69;95710.25;4308002;33;20236;-48
2022/07/03 11:36:30;;;;;;;1.13;1.03;;;;;;;24.85;43.22;95708.22;4348912;32;20216;-51
2022/07/03 11:38:59;;;;;;;0.67;0.67;;;;;;;24.43;50.39;95708.63;4354256;32;20252;-51
2022/07/03 11:41:27;;;;;;;1.53;1.47;;;;;;;24.49;45.84;95709.84;4315326;32;20260;-48
2022/07/03 11:44:02;;;;;;;2.13;1.93;;;;;;;24.75;44.49;95708.13;4325731;32;20197;-51
2022/07/03 11:46:36;;;;;;;2.10;1.27;;;;;;;24.61;45.73;95695.22;4337170;32;20249;-51
2022/07/03 11:49:16;;;;;;;0.43;0.43;;;;;;;24.53;48.23;95697.06;4316274;32;20220;-48
2022/07/03 11:51:57;;;;;;;2.80;0.57;;;;;;;24.27;47.02;95699.94;4344066;32;20211;-51
2022/07/03 11:54:49;;;;;;;0.37;0.37;;;;;;;24.06;47.30;95689.59;4344609;32;20256;-50
2022/07/03 11:57:15;;;;;;;0.10;0.10;;;;;;;24.24;45.96;95692.53;4345769;32;20194;-53
2022/07/03 11:59:42;;;;;;;0.20;0.20;;;;;;;24.48;44.72;95688.50;4314189;32;20193;-49
2022/07/03 12:02:10;;;;;;;0.10;0.10;;;;;;;24.42;44.45;95679.91;4338897;32;20208;-49
2022/07/03 12:04:45;;;;;;;0.37;0.37;;;;;;;24.36;49.25;95681.41;4318445;32;20197;-53
2022/07/03 12:07:10;;;;;;;0.03;0.03;;;;;;;24.56;47.81;95687.41;4324489;32;20201;-50
2022/07/03 12:09:36;;;;;;;0.13;0.13;;;;;;;24.69;46.43;95687.91;4327386;32;20229;-51
2022/07/03 12:12:10;;;;;;;0.43;0.43;;;;;;;24.89;41.59;95690.03;4342195;32;20190;-50
2022/07/03 12:14:46;;;;;;;0.17;0.17;;;;;;;24.60;47.89;95691.72;4336761;32;20197;-50
2022/07/03 12:17:27;;;;;;;0.50;0.50;;;;;;;24.89;42.65;95679.16;4303275;32;20197;-51